sensor_id;sensor_type;location;lat;lon;timestamp;P1;durP1;ratioP1;P2;durP2;ratioP2
5890;SDS011;2971;52.420;7.080;2022-12-07T00:01:22;10.77;;;8.50;;
5890;SDS011;2971;52.420;7.080;2022-12-07T00:03:49;9.93;;;8.40;;
5890;SDS011;2971;52.420;7.080;2022-12-07T00:06:17;10.33;;;8.10;;
5890;SDS011;2971;52.420;7.080;2022-12-07T00:08:42;9.13;;;7.10;;
5890;SDS011;2971;52.420;7.080;2022-12-07T00:11:12;11.60;;;7.20;;
5890;SDS011;2971;52.420;7.080;2022-12-07T00:13:42;9.20;;;6.33;;
5890;SDS011;2971;52.420;7.080;2022-12-07T00:16:12;9.13;;;5.97;;
5890;SDS011;2971;52.420;7.080;2022-12-07T00:18:39;8.57;;;6.47;;
5890;SDS011;2971;52.420;7.080;2022-12-07T00:21:24;7.90;;;5.93;;
5890;SDS011;2971;52.420;7.080;2022-12-07T00:23:53;9.20;;;5.50;;
5890;SDS011;2971;52.420;7.080;2022-12-07T00:26:23;10.80;;;6.30;;
5890;SDS011;2971;52.420;7.080;2022-12-07T00:28:57;8.97;;;6.07;;
5890;SDS011;2971;52.420;7.080;2022-12-07T00:31:26;7.63;;;5.57;;
5890;SDS011;2971;52.420;7.080;2022-12-07T00:33:52;7.67;;;6.13;;
5890;SDS011;2971;52.420;7.080;2022-12-07T00:36:19;7.80;;;5.70;;
5890;SDS011;2971;52.420;7.080;2022-12-07T00:38:45;8.57;;;5.47;;
5890;SDS011;2971;52.420;7.080;2022-12-07T00:41:12;8.57;;;5.80;;
5890;SDS011;2971;52.420;7.080;2022-12-07T00:43:41;13.43;;;6.17;;
5890;SDS011;2971;52.420;7.080;2022-12-07T00:46:08;9.33;;;5.70;;
5890;SDS011;2971;52.420;7.080;2022-12-07T00:48:33;9.07;;;5.90;;
5890;SDS011;2971;52.420;7.080;2022-12-07T00:50:59;9.53;;;6.17;;
5890;SDS011;2971;52.420;7.080;2022-12-07T00:53:25;6.93;;;5.83;;
5890;SDS011;2971;52.420;7.080;2022-12-07T00:55:53;10.70;;;5.87;;
5890;SDS011;2971;52.420;7.080;2022-12-07T00:58:20;9.57;;;6.17;;
5890;SDS011;2971;52.420;7.080;2022-12-07T01:00:46;9.27;;;6.07;;
5890;SDS011;2971;52.420;7.080;2022-12-07T01:03:12;8.50;;;5.73;;
5890;SDS011;2971;52.420;7.080;2022-12-07T01:05:38;11.10;;;5.80;;
5890;SDS011;2971;52.420;7.080;2022-12-07T01:08:04;7.80;;;5.50;;
5890;SDS011;2971;52.420;7.080;2022-12-07T01:10:30;13.00;;;5.70;;
5890;SDS011;2971;52.420;7.080;2022-12-07T01:12:57;9.23;;;5.53;;
5890;SDS011;2971;52.420;7.080;2022-12-07T01:15:23;12.87;;;5.70;;
5890;SDS011;2971;52.420;7.080;2022-12-07T01:17:49;10.37;;;5.53;;
5890;SDS011;2971;52.420;7.080;2022-12-07T01:20:14;10.87;;;5.80;;
5890;SDS011;2971;52.420;7.080;2022-12-07T01:22:41;9.80;;;5.93;;
5890;SDS011;2971;52.420;7.080;2022-12-07T01:25:07;12.60;;;6.23;;
5890;SDS011;2971;52.420;7.080;2022-12-07T01:27:34;9.83;;;5.43;;
5890;SDS011;2971;52.420;7.080;2022-12-07T01:30:00;13.83;;;5.90;;
5890;SDS011;2971;52.420;7.080;2022-12-07T01:32:26;9.97;;;5.87;;
5890;SDS011;2971;52.420;7.080;2022-12-07T01:34:52;10.63;;;6.07;;
5890;SDS011;2971;52.420;7.080;2022-12-07T01:37:17;11.20;;;6.47;;
5890;SDS011;2971;52.420;7.080;2022-12-07T01:39:43;9.00;;;5.70;;
5890;SDS011;2971;52.420;7.080;2022-12-07T01:42:11;10.27;;;6.00;;
5890;SDS011;2971;52.420;7.080;2022-12-07T01:45:39;12.43;;;5.93;;
5890;SDS011;2971;52.420;7.080;2022-12-07T01:47:49;13.70;;;6.50;;
5890;SDS011;2971;52.420;7.080;2022-12-07T01:50:16;14.43;;;5.80;;
5890;SDS011;2971;52.420;7.080;2022-12-07T01:52:42;10.07;;;5.80;;
5890;SDS011;2971;52.420;7.080;2022-12-07T01:55:12;10.00;;;5.33;;
5890;SDS011;2971;52.420;7.080;2022-12-07T01:57:41;13.70;;;5.30;;
5890;SDS011;2971;52.420;7.080;2022-12-07T02:00:09;10.30;;;4.87;;
5890;SDS011;2971;52.420;7.080;2022-12-07T02:02:36;15.50;;;5.27;;
5890;SDS011;2971;52.420;7.080;2022-12-07T02:05:04;11.57;;;5.37;;
5890;SDS011;2971;52.420;7.080;2022-12-07T02:07:31;12.27;;;4.90;;
5890;SDS011;2971;52.420;7.080;2022-12-07T02:09:56;9.70;;;5.20;;
5890;SDS011;2971;52.420;7.080;2022-12-07T02:12:22;12.13;;;4.73;;
5890;SDS011;2971;52.420;7.080;2022-12-07T02:14:49;9.10;;;4.73;;
5890;SDS011;2971;52.420;7.080;2022-12-07T02:17:25;9.67;;;4.77;;
5890;SDS011;2971;52.420;7.080;2022-12-07T02:20:21;10.10;;;4.43;;
5890;SDS011;2971;52.420;7.080;2022-12-07T02:28:33;9.70;;;4.50;;
5890;SDS011;2971;52.420;7.080;2022-12-07T02:31:02;12.93;;;4.10;;
5890;SDS011;2971;52.420;7.080;2022-12-07T02:33:33;13.00;;;4.07;;
5890;SDS011;2971;52.420;7.080;2022-12-07T02:36:17;8.80;;;3.83;;
5890;SDS011;2971;52.420;7.080;2022-12-07T02:38:47;9.77;;;4.47;;
5890;SDS011;2971;52.420;7.080;2022-12-07T02:41:18;15.80;;;4.90;;
5890;SDS011;2971;52.420;7.080;2022-12-07T02:43:48;11.53;;;4.33;;
5890;SDS011;2971;52.420;7.080;2022-12-07T02:46:18;8.37;;;3.53;;
5890;SDS011;2971;52.420;7.080;2022-12-07T02:48:46;9.30;;;4.10;;
5890;SDS011;2971;52.420;7.080;2022-12-07T02:51:12;12.03;;;3.70;;
5890;SDS011;2971;52.420;7.080;2022-12-07T02:53:39;11.00;;;3.67;;
5890;SDS011;2971;52.420;7.080;2022-12-07T02:56:20;9.07;;;3.90;;
5890;SDS011;2971;52.420;7.080;2022-12-07T02:59:13;10.53;;;3.80;;
5890;SDS011;2971;52.420;7.080;2022-12-07T03:02:14;10.13;;;3.37;;
5890;SDS011;2971;52.420;7.080;2022-12-07T03:12:39;11.23;;;3.00;;
5890;SDS011;2971;52.420;7.080;2022-12-07T03:15:14;8.63;;;2.70;;
5890;SDS011;2971;52.420;7.080;2022-12-07T03:17:43;10.23;;;3.17;;
5890;SDS011;2971;52.420;7.080;2022-12-07T03:20:09;9.63;;;3.07;;
5890;SDS011;2971;52.420;7.080;2022-12-07T03:22:37;10.07;;;3.10;;
5890;SDS011;2971;52.420;7.080;2022-12-07T03:25:04;11.03;;;3.33;;
5890;SDS011;2971;52.420;7.080;2022-12-07T03:27:54;8.00;;;2.87;;
5890;SDS011;2971;52.420;7.080;2022-12-07T03:30:23;11.40;;;3.07;;
5890;SDS011;2971;52.420;7.080;2022-12-07T03:35:33;11.87;;;2.87;;
5890;SDS011;2971;52.420;7.080;2022-12-07T03:38:08;9.10;;;2.77;;
5890;SDS011;2971;52.420;7.080;2022-12-07T03:40:52;8.93;;;2.73;;
5890;SDS011;2971;52.420;7.080;2022-12-07T03:43:21;9.03;;;3.03;;
5890;SDS011;2971;52.420;7.080;2022-12-07T03:46:08;14.93;;;3.33;;
5890;SDS011;2971;52.420;7.080;2022-12-07T03:48:51;12.97;;;3.40;;
5890;SDS011;2971;52.420;7.080;2022-12-07T03:54:05;11.00;;;4.00;;
5890;SDS011;2971;52.420;7.080;2022-12-07T03:56:50;11.57;;;3.20;;
5890;SDS011;2971;52.420;7.080;2022-12-07T03:59:17;12.33;;;3.33;;
5890;SDS011;2971;52.420;7.080;2022-12-07T04:01:44;11.83;;;2.73;;
5890;SDS011;2971;52.420;7.080;2022-12-07T04:04:10;10.53;;;3.00;;
5890;SDS011;2971;52.420;7.080;2022-12-07T04:06:36;11.80;;;2.80;;
5890;SDS011;2971;52.420;7.080;2022-12-07T04:09:01;13.27;;;2.80;;
5890;SDS011;2971;52.420;7.080;2022-12-07T04:11:26;8.80;;;2.60;;
5890;SDS011;2971;52.420;7.080;2022-12-07T04:13:52;12.67;;;2.80;;
5890;SDS011;2971;52.420;7.080;2022-12-07T04:16:47;10.93;;;2.57;;
5890;SDS011;2971;52.420;7.080;2022-12-07T04:19:14;11.73;;;3.03;;
5890;SDS011;2971;52.420;7.080;2022-12-07T04:21:40;12.17;;;2.90;;
5890;SDS011;2971;52.420;7.080;2022-12-07T04:24:06;8.37;;;2.60;;
5890;SDS011;2971;52.420;7.080;2022-12-07T04:26:31;8.57;;;2.80;;
5890;SDS011;2971;52.420;7.080;2022-12-07T04:28:57;12.33;;;2.73;;
5890;SDS011;2971;52.420;7.080;2022-12-07T04:31:22;10.90;;;2.93;;
5890;SDS011;2971;52.420;7.080;2022-12-07T04:33:48;15.93;;;2.83;;
5890;SDS011;2971;52.420;7.080;2022-12-07T04:36:13;9.73;;;2.90;;
5890;SDS011;2971;52.420;7.080;2022-12-07T04:38:39;10.53;;;3.07;;
5890;SDS011;2971;52.420;7.080;2022-12-07T04:41:05;11.10;;;2.70;;
5890;SDS011;2971;52.420;7.080;2022-12-07T04:43:31;9.57;;;2.90;;
5890;SDS011;2971;52.420;7.080;2022-12-07T04:45:57;10.03;;;2.50;;
5890;SDS011;2971;52.420;7.080;2022-12-07T04:48:22;11.10;;;2.50;;
5890;SDS011;2971;52.420;7.080;2022-12-07T04:50:48;13.13;;;2.90;;
5890;SDS011;2971;52.420;7.080;2022-12-07T04:53:14;9.67;;;3.10;;
5890;SDS011;2971;52.420;7.080;2022-12-07T04:55:40;10.33;;;3.13;;
5890;SDS011;2971;52.420;7.080;2022-12-07T04:58:05;11.57;;;2.77;;
5890;SDS011;2971;52.420;7.080;2022-12-07T05:00:30;11.63;;;3.33;;
5890;SDS011;2971;52.420;7.080;2022-12-07T05:02:56;9.80;;;2.50;;
5890;SDS011;2971;52.420;7.080;2022-12-07T05:05:21;9.20;;;2.37;;
5890;SDS011;2971;52.420;7.080;2022-12-07T05:07:46;10.07;;;2.33;;
5890;SDS011;2971;52.420;7.080;2022-12-07T05:10:12;11.63;;;2.30;;
5890;SDS011;2971;52.420;7.080;2022-12-07T05:12:37;10.13;;;2.37;;
5890;SDS011;2971;52.420;7.080;2022-12-07T05:15:03;8.03;;;2.47;;
5890;SDS011;2971;52.420;7.080;2022-12-07T05:17:29;9.57;;;2.70;;
5890;SDS011;2971;52.420;7.080;2022-12-07T05:19:54;9.63;;;2.90;;
5890;SDS011;2971;52.420;7.080;2022-12-07T05:22:20;9.63;;;3.37;;
5890;SDS011;2971;52.420;7.080;2022-12-07T05:24:46;9.17;;;3.40;;
5890;SDS011;2971;52.420;7.080;2022-12-07T05:27:11;12.87;;;3.43;;
5890;SDS011;2971;52.420;7.080;2022-12-07T05:29:37;11.20;;;2.87;;
5890;SDS011;2971;52.420;7.080;2022-12-07T05:32:02;9.57;;;3.30;;
5890;SDS011;2971;52.420;7.080;2022-12-07T05:34:28;10.20;;;2.33;;
5890;SDS011;2971;52.420;7.080;2022-12-07T05:36:53;11.60;;;2.80;;
5890;SDS011;2971;52.420;7.080;2022-12-07T05:39:18;8.10;;;3.17;;
5890;SDS011;2971;52.420;7.080;2022-12-07T05:41:44;10.50;;;3.37;;
5890;SDS011;2971;52.420;7.080;2022-12-07T05:44:28;12.90;;;3.07;;
5890;SDS011;2971;52.420;7.080;2022-12-07T05:46:53;16.07;;;3.03;;
5890;SDS011;2971;52.420;7.080;2022-12-07T05:49:19;8.90;;;2.90;;
5890;SDS011;2971;52.420;7.080;2022-12-07T05:51:44;14.30;;;3.73;;
5890;SDS011;2971;52.420;7.080;2022-12-07T05:54:10;15.80;;;4.00;;
5890;SDS011;2971;52.420;7.080;2022-12-07T05:56:35;11.97;;;3.20;;
5890;SDS011;2971;52.420;7.080;2022-12-07T05:59:00;11.70;;;2.97;;
5890;SDS011;2971;52.420;7.080;2022-12-07T06:01:45;9.17;;;3.43;;
5890;SDS011;2971;52.420;7.080;2022-12-07T06:04:10;12.47;;;3.50;;
5890;SDS011;2971;52.420;7.080;2022-12-07T06:06:36;10.30;;;2.80;;
5890;SDS011;2971;52.420;7.080;2022-12-07T06:09:02;9.63;;;3.10;;
5890;SDS011;2971;52.420;7.080;2022-12-07T06:11:28;11.67;;;3.20;;
5890;SDS011;2971;52.420;7.080;2022-12-07T06:14:12;13.57;;;4.07;;
5890;SDS011;2971;52.420;7.080;2022-12-07T06:16:37;11.43;;;3.73;;
5890;SDS011;2971;52.420;7.080;2022-12-07T06:19:02;10.77;;;3.53;;
5890;SDS011;2971;52.420;7.080;2022-12-07T06:21:28;10.60;;;3.50;;
5890;SDS011;2971;52.420;7.080;2022-12-07T06:23:53;10.43;;;3.53;;
5890;SDS011;2971;52.420;7.080;2022-12-07T06:26:19;14.10;;;3.50;;
5890;SDS011;2971;52.420;7.080;2022-12-07T06:28:44;11.93;;;3.40;;
5890;SDS011;2971;52.420;7.080;2022-12-07T06:31:10;12.40;;;3.50;;
5890;SDS011;2971;52.420;7.080;2022-12-07T06:33:35;11.90;;;4.10;;
5890;SDS011;2971;52.420;7.080;2022-12-07T06:36:01;11.43;;;3.87;;
5890;SDS011;2971;52.420;7.080;2022-12-07T06:38:26;11.63;;;3.40;;
5890;SDS011;2971;52.420;7.080;2022-12-07T06:40:51;12.50;;;3.30;;
5890;SDS011;2971;52.420;7.080;2022-12-07T06:43:17;11.03;;;3.13;;
5890;SDS011;2971;52.420;7.080;2022-12-07T06:45:42;11.73;;;3.50;;
5890;SDS011;2971;52.420;7.080;2022-12-07T06:48:08;10.23;;;3.73;;
5890;SDS011;2971;52.420;7.080;2022-12-07T06:50:33;15.03;;;3.50;;
5890;SDS011;2971;52.420;7.080;2022-12-07T06:52:58;7.30;;;3.03;;
5890;SDS011;2971;52.420;7.080;2022-12-07T06:55:24;10.47;;;3.53;;
5890;SDS011;2971;52.420;7.080;2022-12-07T06:57:49;7.90;;;3.63;;
5890;SDS011;2971;52.420;7.080;2022-12-07T07:00:15;11.73;;;3.60;;
5890;SDS011;2971;52.420;7.080;2022-12-07T07:02:41;11.20;;;3.40;;
5890;SDS011;2971;52.420;7.080;2022-12-07T07:05:06;16.60;;;4.53;;
5890;SDS011;2971;52.420;7.080;2022-12-07T07:07:32;9.13;;;3.10;;
5890;SDS011;2971;52.420;7.080;2022-12-07T07:09:57;10.43;;;3.77;;
5890;SDS011;2971;52.420;7.080;2022-12-07T07:12:23;13.00;;;3.60;;
5890;SDS011;2971;52.420;7.080;2022-12-07T07:14:48;9.27;;;3.50;;
5890;SDS011;2971;52.420;7.080;2022-12-07T07:17:13;11.77;;;3.60;;
5890;SDS011;2971;52.420;7.080;2022-12-07T07:19:39;10.53;;;4.20;;
5890;SDS011;2971;52.420;7.080;2022-12-07T07:22:05;12.73;;;3.93;;
5890;SDS011;2971;52.420;7.080;2022-12-07T07:24:30;12.73;;;3.97;;
5890;SDS011;2971;52.420;7.080;2022-12-07T07:26:56;17.10;;;4.43;;
5890;SDS011;2971;52.420;7.080;2022-12-07T07:29:21;11.60;;;3.90;;
5890;SDS011;2971;52.420;7.080;2022-12-07T07:31:47;16.77;;;4.33;;
5890;SDS011;2971;52.420;7.080;2022-12-07T07:34:12;13.30;;;3.67;;
5890;SDS011;2971;52.420;7.080;2022-12-07T07:36:38;13.20;;;3.97;;
5890;SDS011;2971;52.420;7.080;2022-12-07T07:39:03;16.33;;;4.73;;
5890;SDS011;2971;52.420;7.080;2022-12-07T07:41:29;15.50;;;4.37;;
5890;SDS011;2971;52.420;7.080;2022-12-07T07:43:55;12.90;;;4.37;;
5890;SDS011;2971;52.420;7.080;2022-12-07T07:46:20;15.60;;;5.10;;
5890;SDS011;2971;52.420;7.080;2022-12-07T07:48:46;13.47;;;4.30;;
5890;SDS011;2971;52.420;7.080;2022-12-07T07:51:11;12.67;;;4.13;;
5890;SDS011;2971;52.420;7.080;2022-12-07T07:53:37;13.73;;;4.00;;
5890;SDS011;2971;52.420;7.080;2022-12-07T07:56:02;9.83;;;4.07;;
5890;SDS011;2971;52.420;7.080;2022-12-07T07:58:28;13.67;;;4.90;;
5890;SDS011;2971;52.420;7.080;2022-12-07T08:00:53;15.90;;;4.00;;
5890;SDS011;2971;52.420;7.080;2022-12-07T08:03:19;13.50;;;3.60;;
5890;SDS011;2971;52.420;7.080;2022-12-07T08:05:44;15.50;;;3.80;;
5890;SDS011;2971;52.420;7.080;2022-12-07T08:08:10;13.30;;;3.50;;
5890;SDS011;2971;52.420;7.080;2022-12-07T08:10:35;15.03;;;3.97;;
5890;SDS011;2971;52.420;7.080;2022-12-07T08:13:02;10.30;;;3.70;;
5890;SDS011;2971;52.420;7.080;2022-12-07T08:15:37;18.80;;;3.50;;
5890;SDS011;2971;52.420;7.080;2022-12-07T08:18:03;14.67;;;3.47;;
5890;SDS011;2971;52.420;7.080;2022-12-07T08:20:30;13.20;;;3.73;;
5890;SDS011;2971;52.420;7.080;2022-12-07T08:22:56;13.27;;;3.70;;
5890;SDS011;2971;52.420;7.080;2022-12-07T08:25:23;11.50;;;3.17;;
5890;SDS011;2971;52.420;7.080;2022-12-07T08:27:49;9.63;;;3.00;;
5890;SDS011;2971;52.420;7.080;2022-12-07T08:30:15;11.23;;;3.07;;
5890;SDS011;2971;52.420;7.080;2022-12-07T08:32:41;13.17;;;3.30;;
5890;SDS011;2971;52.420;7.080;2022-12-07T08:35:06;13.03;;;3.67;;
5890;SDS011;2971;52.420;7.080;2022-12-07T08:37:32;14.53;;;3.73;;
5890;SDS011;2971;52.420;7.080;2022-12-07T08:39:58;11.07;;;3.40;;
5890;SDS011;2971;52.420;7.080;2022-12-07T08:42:23;16.20;;;4.47;;
5890;SDS011;2971;52.420;7.080;2022-12-07T08:44:54;22.60;;;3.97;;
5890;SDS011;2971;52.420;7.080;2022-12-07T08:47:21;31.77;;;5.93;;
5890;SDS011;2971;52.420;7.080;2022-12-07T08:49:47;16.57;;;3.33;;
5890;SDS011;2971;52.420;7.080;2022-12-07T08:52:13;14.63;;;2.97;;
5890;SDS011;2971;52.420;7.080;2022-12-07T08:54:39;12.93;;;3.33;;
5890;SDS011;2971;52.420;7.080;2022-12-07T08:57:05;8.97;;;2.90;;
5890;SDS011;2971;52.420;7.080;2022-12-07T08:59:31;13.23;;;3.27;;
5890;SDS011;2971;52.420;7.080;2022-12-07T09:01:58;13.13;;;3.60;;
5890;SDS011;2971;52.420;7.080;2022-12-07T09:04:23;26.80;;;4.70;;
5890;SDS011;2971;52.420;7.080;2022-12-07T09:06:49;12.43;;;4.37;;
5890;SDS011;2971;52.420;7.080;2022-12-07T09:09:16;9.73;;;2.87;;
5890;SDS011;2971;52.420;7.080;2022-12-07T09:11:41;10.47;;;3.27;;
5890;SDS011;2971;52.420;7.080;2022-12-07T09:14:07;7.03;;;2.97;;
5890;SDS011;2971;52.420;7.080;2022-12-07T09:16:33;8.03;;;2.70;;
5890;SDS011;2971;52.420;7.080;2022-12-07T09:18:58;13.07;;;3.40;;
5890;SDS011;2971;52.420;7.080;2022-12-07T09:21:24;10.90;;;2.83;;
5890;SDS011;2971;52.420;7.080;2022-12-07T09:23:49;8.43;;;2.60;;
5890;SDS011;2971;52.420;7.080;2022-12-07T09:26:15;10.23;;;2.63;;
5890;SDS011;2971;52.420;7.080;2022-12-07T09:28:40;8.53;;;2.60;;
5890;SDS011;2971;52.420;7.080;2022-12-07T09:31:06;5.83;;;2.43;;
5890;SDS011;2971;52.420;7.080;2022-12-07T09:33:31;7.60;;;2.60;;
5890;SDS011;2971;52.420;7.080;2022-12-07T09:35:57;10.23;;;2.63;;
5890;SDS011;2971;52.420;7.080;2022-12-07T09:38:23;5.87;;;2.57;;
5890;SDS011;2971;52.420;7.080;2022-12-07T09:40:51;10.17;;;2.90;;
5890;SDS011;2971;52.420;7.080;2022-12-07T09:43:21;5.43;;;2.30;;
5890;SDS011;2971;52.420;7.080;2022-12-07T09:45:48;7.93;;;2.73;;
5890;SDS011;2971;52.420;7.080;2022-12-07T09:48:19;10.43;;;2.63;;
5890;SDS011;2971;52.420;7.080;2022-12-07T09:50:47;4.70;;;2.13;;
5890;SDS011;2971;52.420;7.080;2022-12-07T09:53:14;10.50;;;2.73;;
5890;SDS011;2971;52.420;7.080;2022-12-07T09:55:44;7.50;;;2.37;;
5890;SDS011;2971;52.420;7.080;2022-12-07T09:58:30;8.90;;;2.50;;
5890;SDS011;2971;52.420;7.080;2022-12-07T10:01:00;6.53;;;2.77;;
5890;SDS011;2971;52.420;7.080;2022-12-07T10:03:36;7.33;;;2.87;;
5890;SDS011;2971;52.420;7.080;2022-12-07T10:06:03;6.07;;;2.00;;
5890;SDS011;2971;52.420;7.080;2022-12-07T10:08:29;7.60;;;2.20;;
5890;SDS011;2971;52.420;7.080;2022-12-07T10:10:55;10.27;;;2.40;;
5890;SDS011;2971;52.420;7.080;2022-12-07T10:16:02;8.20;;;2.80;;
5890;SDS011;2971;52.420;7.080;2022-12-07T10:23:42;8.10;;;2.73;;
5890;SDS011;2971;52.420;7.080;2022-12-07T10:28:55;7.77;;;2.93;;
5890;SDS011;2971;52.420;7.080;2022-12-07T10:31:23;6.23;;;2.63;;
5890;SDS011;2971;52.420;7.080;2022-12-07T10:33:56;5.40;;;2.30;;
5890;SDS011;2971;52.420;7.080;2022-12-07T10:36:36;8.03;;;2.40;;
5890;SDS011;2971;52.420;7.080;2022-12-07T10:39:19;7.13;;;2.27;;
5890;SDS011;2971;52.420;7.080;2022-12-07T10:41:55;8.90;;;2.50;;
5890;SDS011;2971;52.420;7.080;2022-12-07T10:44:23;7.43;;;2.37;;
5890;SDS011;2971;52.420;7.080;2022-12-07T11:00:23;6.33;;;2.80;;
5890;SDS011;2971;52.420;7.080;2022-12-07T11:02:54;8.37;;;3.10;;
5890;SDS011;2971;52.420;7.080;2022-12-07T11:13:29;7.50;;;2.93;;
5890;SDS011;2971;52.420;7.080;2022-12-07T11:25:35;10.57;;;2.67;;
5890;SDS011;2971;52.420;7.080;2022-12-07T11:30:53;7.03;;;2.63;;
5890;SDS011;2971;52.420;7.080;2022-12-07T11:33:26;5.80;;;2.30;;
5890;SDS011;2971;52.420;7.080;2022-12-07T11:42:20;6.77;;;2.30;;
5890;SDS011;2971;52.420;7.080;2022-12-07T11:44:53;7.20;;;2.33;;
5890;SDS011;2971;52.420;7.080;2022-12-07T11:47:30;6.67;;;2.00;;
5890;SDS011;2971;52.420;7.080;2022-12-07T11:52:55;8.90;;;2.87;;
5890;SDS011;2971;52.420;7.080;2022-12-07T12:06:36;8.73;;;3.10;;
5890;SDS011;2971;52.420;7.080;2022-12-07T12:11:47;6.87;;;2.60;;
5890;SDS011;2971;52.420;7.080;2022-12-07T12:17:36;9.23;;;2.20;;
5890;SDS011;2971;52.420;7.080;2022-12-07T12:25:39;9.13;;;2.53;;
5890;SDS011;2971;52.420;7.080;2022-12-07T12:28:15;6.27;;;2.30;;
5890;SDS011;2971;52.420;7.080;2022-12-07T12:33:54;10.10;;;2.80;;
5890;SDS011;2971;52.420;7.080;2022-12-07T12:54:32;8.77;;;2.63;;
5890;SDS011;2971;52.420;7.080;2022-12-07T13:28:49;7.43;;;2.07;;
5890;SDS011;2971;52.420;7.080;2022-12-07T13:31:28;7.83;;;2.30;;
5890;SDS011;2971;52.420;7.080;2022-12-07T13:33:56;8.17;;;2.37;;
5890;SDS011;2971;52.420;7.080;2022-12-07T13:36:32;8.47;;;2.63;;
5890;SDS011;2971;52.420;7.080;2022-12-07T13:39:10;8.47;;;2.93;;
5890;SDS011;2971;52.420;7.080;2022-12-07T13:41:54;6.47;;;2.57;;
5890;SDS011;2971;52.420;7.080;2022-12-07T13:44:22;11.23;;;4.20;;
5890;SDS011;2971;52.420;7.080;2022-12-07T13:46:57;7.00;;;2.70;;
5890;SDS011;2971;52.420;7.080;2022-12-07T13:49:28;7.50;;;2.40;;
5890;SDS011;2971;52.420;7.080;2022-12-07T13:51:55;7.47;;;2.73;;
5890;SDS011;2971;52.420;7.080;2022-12-07T13:55:00;8.93;;;2.73;;
5890;SDS011;2971;52.420;7.080;2022-12-07T13:57:29;9.47;;;3.50;;
5890;SDS011;2971;52.420;7.080;2022-12-07T13:59:56;8.50;;;2.97;;
5890;SDS011;2971;52.420;7.080;2022-12-07T14:02:26;7.87;;;2.77;;
5890;SDS011;2971;52.420;7.080;2022-12-07T14:05:05;7.47;;;3.10;;
5890;SDS011;2971;52.420;7.080;2022-12-07T14:07:32;7.80;;;2.80;;
5890;SDS011;2971;52.420;7.080;2022-12-07T14:09:59;6.53;;;2.93;;
5890;SDS011;2971;52.420;7.080;2022-12-07T14:12:28;7.90;;;3.30;;
5890;SDS011;2971;52.420;7.080;2022-12-07T14:14:55;8.03;;;2.57;;
5890;SDS011;2971;52.420;7.080;2022-12-07T14:17:22;13.47;;;3.43;;
5890;SDS011;2971;52.420;7.080;2022-12-07T14:19:56;8.10;;;2.53;;
5890;SDS011;2971;52.420;7.080;2022-12-07T14:22:36;10.13;;;2.97;;
5890;SDS011;2971;52.420;7.080;2022-12-07T14:25:25;7.30;;;2.80;;
5890;SDS011;2971;52.420;7.080;2022-12-07T14:30:22;12.17;;;2.90;;
5890;SDS011;2971;52.420;7.080;2022-12-07T14:32:51;11.30;;;3.23;;
5890;SDS011;2971;52.420;7.080;2022-12-07T14:35:18;10.63;;;3.27;;
5890;SDS011;2971;52.420;7.080;2022-12-07T14:37:45;7.70;;;2.50;;
5890;SDS011;2971;52.420;7.080;2022-12-07T14:40:25;9.07;;;2.90;;
5890;SDS011;2971;52.420;7.080;2022-12-07T14:43:01;8.53;;;3.07;;
5890;SDS011;2971;52.420;7.080;2022-12-07T14:45:27;9.23;;;2.50;;
5890;SDS011;2971;52.420;7.080;2022-12-07T14:47:53;9.83;;;3.10;;
5890;SDS011;2971;52.420;7.080;2022-12-07T14:50:20;7.40;;;2.90;;
5890;SDS011;2971;52.420;7.080;2022-12-07T14:52:53;9.93;;;2.97;;
5890;SDS011;2971;52.420;7.080;2022-12-07T14:55:23;8.17;;;3.03;;
5890;SDS011;2971;52.420;7.080;2022-12-07T14:57:53;10.63;;;2.80;;
5890;SDS011;2971;52.420;7.080;2022-12-07T15:00:20;8.10;;;2.50;;
5890;SDS011;2971;52.420;7.080;2022-12-07T15:02:47;8.53;;;2.53;;
5890;SDS011;2971;52.420;7.080;2022-12-07T15:05:13;9.03;;;2.97;;
5890;SDS011;2971;52.420;7.080;2022-12-07T15:07:39;15.43;;;3.40;;
5890;SDS011;2971;52.420;7.080;2022-12-07T15:10:05;9.73;;;3.07;;
5890;SDS011;2971;52.420;7.080;2022-12-07T15:12:31;8.40;;;3.50;;
5890;SDS011;2971;52.420;7.080;2022-12-07T15:14:57;8.60;;;3.10;;
5890;SDS011;2971;52.420;7.080;2022-12-07T15:17:22;10.50;;;3.20;;
5890;SDS011;2971;52.420;7.080;2022-12-07T15:19:48;10.07;;;3.33;;
5890;SDS011;2971;52.420;7.080;2022-12-07T15:22:13;8.93;;;4.50;;
5890;SDS011;2971;52.420;7.080;2022-12-07T15:24:38;9.07;;;3.73;;
5890;SDS011;2971;52.420;7.080;2022-12-07T15:27:04;9.97;;;3.43;;
5890;SDS011;2971;52.420;7.080;2022-12-07T15:29:29;11.87;;;3.50;;
5890;SDS011;2971;52.420;7.080;2022-12-07T15:31:55;10.70;;;3.80;;
5890;SDS011;2971;52.420;7.080;2022-12-07T15:34:20;9.73;;;3.80;;
5890;SDS011;2971;52.420;7.080;2022-12-07T15:36:46;10.63;;;4.17;;
5890;SDS011;2971;52.420;7.080;2022-12-07T15:39:11;11.00;;;3.80;;
5890;SDS011;2971;52.420;7.080;2022-12-07T15:41:37;9.80;;;4.40;;
5890;SDS011;2971;52.420;7.080;2022-12-07T15:44:02;11.13;;;3.37;;
5890;SDS011;2971;52.420;7.080;2022-12-07T15:46:47;9.97;;;3.70;;
5890;SDS011;2971;52.420;7.080;2022-12-07T15:49:13;9.30;;;3.90;;
5890;SDS011;2971;52.420;7.080;2022-12-07T15:51:43;9.47;;;3.30;;
5890;SDS011;2971;52.420;7.080;2022-12-07T15:54:25;10.37;;;3.57;;
5890;SDS011;2971;52.420;7.080;2022-12-07T15:56:53;10.13;;;3.67;;
5890;SDS011;2971;52.420;7.080;2022-12-07T15:59:19;9.40;;;3.50;;
5890;SDS011;2971;52.420;7.080;2022-12-07T16:01:45;8.17;;;3.10;;
5890;SDS011;2971;52.420;7.080;2022-12-07T16:04:10;8.97;;;3.43;;
5890;SDS011;2971;52.420;7.080;2022-12-07T16:06:36;10.93;;;3.80;;
5890;SDS011;2971;52.420;7.080;2022-12-07T16:09:01;8.67;;;3.80;;
5890;SDS011;2971;52.420;7.080;2022-12-07T16:11:27;10.10;;;3.70;;
5890;SDS011;2971;52.420;7.080;2022-12-07T16:13:53;10.27;;;3.67;;
5890;SDS011;2971;52.420;7.080;2022-12-07T16:16:19;8.20;;;3.90;;
5890;SDS011;2971;52.420;7.080;2022-12-07T16:18:45;8.77;;;3.70;;
5890;SDS011;2971;52.420;7.080;2022-12-07T16:21:11;9.60;;;3.70;;
5890;SDS011;2971;52.420;7.080;2022-12-07T16:23:36;10.60;;;3.90;;
5890;SDS011;2971;52.420;7.080;2022-12-07T16:26:06;9.50;;;4.20;;
5890;SDS011;2971;52.420;7.080;2022-12-07T16:28:32;9.70;;;3.60;;
5890;SDS011;2971;52.420;7.080;2022-12-07T16:31:05;7.53;;;3.97;;
5890;SDS011;2971;52.420;7.080;2022-12-07T16:33:35;7.00;;;3.80;;
5890;SDS011;2971;52.420;7.080;2022-12-07T16:36:02;11.90;;;5.17;;
5890;SDS011;2971;52.420;7.080;2022-12-07T16:38:28;8.67;;;4.20;;
5890;SDS011;2971;52.420;7.080;2022-12-07T16:40:54;8.97;;;4.00;;
5890;SDS011;2971;52.420;7.080;2022-12-07T16:43:19;9.77;;;4.47;;
5890;SDS011;2971;52.420;7.080;2022-12-07T16:45:45;7.60;;;3.40;;
5890;SDS011;2971;52.420;7.080;2022-12-07T16:48:12;7.57;;;3.20;;
5890;SDS011;2971;52.420;7.080;2022-12-07T16:50:39;4.73;;;2.83;;
5890;SDS011;2971;52.420;7.080;2022-12-07T16:53:06;7.63;;;3.03;;
5890;SDS011;2971;52.420;7.080;2022-12-07T16:55:34;5.17;;;2.50;;
5890;SDS011;2971;52.420;7.080;2022-12-07T16:58:01;6.43;;;2.70;;
5890;SDS011;2971;52.420;7.080;2022-12-07T17:00:26;6.67;;;2.20;;
5890;SDS011;2971;52.420;7.080;2022-12-07T17:02:52;7.07;;;2.90;;
5890;SDS011;2971;52.420;7.080;2022-12-07T17:05:17;5.27;;;2.33;;
5890;SDS011;2971;52.420;7.080;2022-12-07T17:07:42;7.87;;;2.60;;
5890;SDS011;2971;52.420;7.080;2022-12-07T17:10:08;7.27;;;2.93;;
5890;SDS011;2971;52.420;7.080;2022-12-07T17:12:34;8.37;;;2.67;;
5890;SDS011;2971;52.420;7.080;2022-12-07T17:14:59;4.80;;;1.97;;
5890;SDS011;2971;52.420;7.080;2022-12-07T17:18:00;6.63;;;2.00;;
5890;SDS011;2971;52.420;7.080;2022-12-07T17:20:26;6.70;;;2.10;;
5890;SDS011;2971;52.420;7.080;2022-12-07T17:22:53;6.57;;;2.53;;
5890;SDS011;2971;52.420;7.080;2022-12-07T17:25:18;3.80;;;2.17;;
5890;SDS011;2971;52.420;7.080;2022-12-07T17:27:44;4.70;;;2.00;;
5890;SDS011;2971;52.420;7.080;2022-12-07T17:30:11;5.60;;;2.20;;
5890;SDS011;2971;52.420;7.080;2022-12-07T17:32:37;4.90;;;2.67;;
5890;SDS011;2971;52.420;7.080;2022-12-07T17:35:03;6.77;;;2.80;;
5890;SDS011;2971;52.420;7.080;2022-12-07T17:37:30;3.30;;;2.10;;
5890;SDS011;2971;52.420;7.080;2022-12-07T17:39:56;4.13;;;2.00;;
5890;SDS011;2971;52.420;7.080;2022-12-07T17:42:23;4.93;;;2.10;;
5890;SDS011;2971;52.420;7.080;2022-12-07T17:45:04;3.13;;;2.20;;
5890;SDS011;2971;52.420;7.080;2022-12-07T17:47:31;5.33;;;2.50;;